Terminal Aerodrome Forecast
Issued by NWS Paducah, KY

Home | Current Version | Previous Version | Text Only | Print | Product List | Glossary On
Versions: 1 2 3 4 5 6 7 8 9 10 11 12 13 14 15 16 17 18 19 20
000
FTUS43 KPAH 190958 AAC
TAFPAH
TAF AMD
KPAH 190958Z 1910/2006 17004KT P6SM BKN080
      TEMPO 1910/1913 00000KT 1SM BR SCT080
     FM191300 23001KT 5SM BR SCT015 BKN070
     FM191600 23004KT P6SM SCT018 BKN045
     FM200300 18005KT P6SM SKC=

USA.gov is the U.S. government's official web portal to all federal, state and local government web resources and services.